createdAt,value
2018-09-14T00:00:06.430Z,14.20
2018-09-14T00:02:34.889Z,14.10
2018-09-14T00:05:04.760Z,14.10
2018-09-14T00:07:33.193Z,14.10
2018-09-14T00:10:01.844Z,14.10
2018-09-14T00:12:30.378Z,14.20
2018-09-14T00:14:58.812Z,14.20
2018-09-14T00:17:27.333Z,14.20
2018-09-14T00:20:58.743Z,14.20
2018-09-14T00:23:27.177Z,14.20
2018-09-14T00:25:55.658Z,14.20
2018-09-14T00:28:24.356Z,14.20
2018-09-14T00:30:52.801Z,14.20
2018-09-14T00:33:21.309Z,14.20
2018-09-14T00:35:49.767Z,14.20
2018-09-14T00:38:19.196Z,14.20
2018-09-14T00:40:47.660Z,14.30
2018-09-14T00:43:16.264Z,14.30
2018-09-14T00:45:44.717Z,14.30
2018-09-14T00:48:13.256Z,14.30
2018-09-14T00:50:41.692Z,14.20
2018-09-14T00:53:10.165Z,14.20
2018-09-14T00:55:38.687Z,14.10
2018-09-14T00:58:07.153Z,14.10
2018-09-14T01:00:35.621Z,14.00
2018-09-14T01:03:04.098Z,14.00
2018-09-14T01:06:36.056Z,13.90
2018-09-14T01:09:07.772Z,13.90
2018-09-14T01:11:36.306Z,13.90
2018-09-14T01:14:04.798Z,13.90
2018-09-14T01:16:33.311Z,13.90
2018-09-14T01:19:01.761Z,13.90
2018-09-14T01:21:30.269Z,13.80
2018-09-14T01:23:58.717Z,13.80
2018-09-14T01:26:27.233Z,13.80
2018-09-14T01:28:55.676Z,13.80
2018-09-14T01:31:25.232Z,13.80
2018-09-14T01:33:53.664Z,13.80
2018-09-14T01:36:22.181Z,13.80
2018-09-14T01:38:50.644Z,13.80
2018-09-14T01:41:19.120Z,13.80
2018-09-14T01:43:47.593Z,13.70
2018-09-14T01:46:16.088Z,13.70
2018-09-14T01:48:44.566Z,13.70
2018-09-14T01:51:13.321Z,13.80
2018-09-14T01:53:41.869Z,13.70
2018-09-14T01:56:10.328Z,13.70
2018-09-14T01:58:38.784Z,13.70
2018-09-14T02:01:07.612Z,13.70
2018-09-14T02:03:36.084Z,13.70
2018-09-14T02:06:04.532Z,13.70
2018-09-14T02:08:33.025Z,13.60
2018-09-14T02:11:01.500Z,13.60
2018-09-14T02:13:30.000Z,13.60
2018-09-14T02:15:58.476Z,13.60
2018-09-14T02:18:26.959Z,13.60
2018-09-14T02:21:58.608Z,13.60
2018-09-14T02:24:27.137Z,13.60
2018-09-14T02:26:55.572Z,13.60
2018-09-14T02:29:24.993Z,13.60
2018-09-14T02:31:53.444Z,13.60
2018-09-14T02:34:21.949Z,13.60
2018-09-14T02:36:50.465Z,13.60
2018-09-14T02:39:18.921Z,13.60
2018-09-14T02:41:47.570Z,13.60
2018-09-14T02:44:16.082Z,13.60
2018-09-14T02:46:44.569Z,13.60
2018-09-14T02:49:13.128Z,13.60
2018-09-14T02:51:41.644Z,13.60
2018-09-14T02:54:10.562Z,13.60
2018-09-14T02:56:39.037Z,13.70
2018-09-14T02:59:07.473Z,13.70
2018-09-14T03:01:35.974Z,13.70
2018-09-14T03:04:04.480Z,13.70
2018-09-14T03:06:32.937Z,13.70
2018-09-14T03:09:01.462Z,13.80
2018-09-14T03:11:30.121Z,13.80
2018-09-14T03:13:59.403Z,13.80
2018-09-14T03:16:28.874Z,13.80
2018-09-14T03:18:57.459Z,13.80
2018-09-14T03:21:25.969Z,13.80
2018-09-14T03:23:54.446Z,13.80
2018-09-14T03:26:22.961Z,13.80
2018-09-14T03:28:51.438Z,13.80
2018-09-14T03:31:19.961Z,13.80
2018-09-14T03:33:48.476Z,13.80
2018-09-14T03:36:16.953Z,13.80
2018-09-14T03:38:45.448Z,13.80
2018-09-14T03:41:13.993Z,13.70
2018-09-14T03:43:42.513Z,13.70
2018-09-14T03:46:10.976Z,13.70
2018-09-14T03:48:39.481Z,13.60
2018-09-14T03:51:08.064Z,13.70
2018-09-14T03:53:36.672Z,13.60
2018-09-14T03:56:05.126Z,13.70
2018-09-14T03:58:33.618Z,13.70
2018-09-14T04:01:02.245Z,13.70
2018-09-14T04:03:30.697Z,13.70
2018-09-14T04:05:59.154Z,13.60
2018-09-14T04:08:27.608Z,13.50
2018-09-14T04:10:56.144Z,13.50
2018-09-14T04:13:24.642Z,13.50
2018-09-14T04:15:53.112Z,13.50
2018-09-14T04:18:21.567Z,13.50
2018-09-14T04:20:50.073Z,13.40
2018-09-14T04:23:18.570Z,13.40
2018-09-14T04:25:47.011Z,13.40
2018-09-14T04:28:15.560Z,13.40
2018-09-14T04:30:44.085Z,13.30
2018-09-14T04:33:12.680Z,13.30
2018-09-14T04:35:41.131Z,13.30
2018-09-14T04:38:09.695Z,13.30
2018-09-14T04:40:38.092Z,13.20
2018-09-14T04:43:06.592Z,13.30
2018-09-14T04:45:35.066Z,13.30
2018-09-14T04:48:03.961Z,13.20
2018-09-14T04:50:32.427Z,13.20
2018-09-14T04:53:00.938Z,13.20
2018-09-14T04:55:29.409Z,13.20
2018-09-14T04:57:57.962Z,13.20
2018-09-14T05:00:26.477Z,13.20
2018-09-14T05:02:55.045Z,13.10
2018-09-14T05:05:23.540Z,13.10
2018-09-14T05:07:52.013Z,13.10
2018-09-14T05:10:20.521Z,13.00
2018-09-14T05:12:48.968Z,13.00
2018-09-14T05:15:18.394Z,12.90
2018-09-14T05:17:46.873Z,12.90
2018-09-14T05:20:15.351Z,12.80
2018-09-14T05:22:43.805Z,12.80
2018-09-14T05:25:12.359Z,12.80
2018-09-14T05:27:40.788Z,12.80
2018-09-14T05:30:09.278Z,12.80
2018-09-14T05:32:37.740Z,12.80
2018-09-14T05:35:06.272Z,12.80
2018-09-14T05:37:34.712Z,12.80
2018-09-14T05:40:03.240Z,12.80
2018-09-14T05:42:31.685Z,12.90
2018-09-14T05:45:00.260Z,12.80
2018-09-14T05:47:28.743Z,12.90
2018-09-14T05:49:57.305Z,12.90
2018-09-14T05:52:25.823Z,12.90
2018-09-14T05:54:54.299Z,12.90
2018-09-14T05:57:22.761Z,12.90
2018-09-14T05:59:51.236Z,12.90
2018-09-14T06:02:19.768Z,12.90
2018-09-14T06:04:48.213Z,13.10
2018-09-14T06:07:16.719Z,13.20
2018-09-14T06:09:45.217Z,13.20
2018-09-14T06:12:13.654Z,13.30
2018-09-14T06:14:43.230Z,13.30
2018-09-14T06:17:11.685Z,13.20
2018-09-14T06:19:40.144Z,13.20
2018-09-14T06:22:08.656Z,13.20
2018-09-14T06:24:37.115Z,13.20
2018-09-14T06:27:05.774Z,13.20
2018-09-14T06:29:34.298Z,13.30
2018-09-14T06:32:02.749Z,13.30
2018-09-14T06:34:31.254Z,13.40
2018-09-14T06:36:59.736Z,13.40
2018-09-14T06:39:28.402Z,13.60
2018-09-14T06:41:56.876Z,13.70
2018-09-14T06:44:25.340Z,13.70
2018-09-14T06:46:53.853Z,13.90
2018-09-14T06:49:22.367Z,14.00
2018-09-14T06:51:50.813Z,14.10
2018-09-14T06:54:19.337Z,14.30
2018-09-14T06:56:47.791Z,14.30
2018-09-14T06:59:16.257Z,14.40
2018-09-14T07:01:44.737Z,14.50
2018-09-14T07:04:13.205Z,14.60
2018-09-14T07:07:45.376Z,14.70
2018-09-14T07:10:13.852Z,14.80
2018-09-14T07:12:42.403Z,14.80
2018-09-14T07:15:10.907Z,14.90
2018-09-14T07:17:39.512Z,15.10
2018-09-14T07:20:08.053Z,15.10
2018-09-14T07:22:36.596Z,15.20
2018-09-14T07:25:05.152Z,15.30
2018-09-14T07:27:33.719Z,15.30
2018-09-14T07:30:02.276Z,15.40
2018-09-14T07:32:30.708Z,15.30
2018-09-14T07:34:59.220Z,15.20
2018-09-14T07:37:27.673Z,15.20
2018-09-14T07:39:56.176Z,15.20
2018-09-14T07:42:24.678Z,15.30
2018-09-14T07:44:53.146Z,15.30
2018-09-14T07:47:21.602Z,15.30
2018-09-14T07:49:50.111Z,15.40
2018-09-14T07:52:18.562Z,15.40
2018-09-14T07:54:48.100Z,15.40
2018-09-14T07:57:16.883Z,15.50
2018-09-14T07:59:45.417Z,15.60
2018-09-14T08:02:13.941Z,15.60
2018-09-14T08:04:42.410Z,15.70
2018-09-14T08:07:11.009Z,15.80
2018-09-14T08:09:39.465Z,15.80
2018-09-14T08:12:08.060Z,16.00
2018-09-14T08:14:36.520Z,16.10
2018-09-14T08:17:05.077Z,16.10
2018-09-14T08:19:33.528Z,16.20
2018-09-14T08:22:02.053Z,16.30
2018-09-14T08:24:30.453Z,16.40
2018-09-14T08:26:59.012Z,16.40
2018-09-14T08:29:27.488Z,16.40
2018-09-14T08:31:55.917Z,16.50
2018-09-14T08:34:24.411Z,16.50
2018-09-14T08:36:52.881Z,16.50
2018-09-14T08:39:21.380Z,16.40
2018-09-14T08:42:53.244Z,16.50
2018-09-14T08:45:21.758Z,16.50
2018-09-14T08:47:50.403Z,16.60
2018-09-14T08:50:18.908Z,16.60
2018-09-14T08:52:47.407Z,16.60
2018-09-14T08:55:15.877Z,16.60
2018-09-14T08:57:44.336Z,16.60
2018-09-14T09:00:12.923Z,16.60
2018-09-14T09:02:41.378Z,16.60
2018-09-14T09:05:10.795Z,16.50
2018-09-14T09:07:40.336Z,16.60
2018-09-14T09:10:08.810Z,16.60
2018-09-14T09:12:37.300Z,16.60
2018-09-14T09:15:05.980Z,16.70
2018-09-14T09:17:34.520Z,16.90
2018-09-14T09:20:03.085Z,17.00
2018-09-14T09:22:31.621Z,17.10
2018-09-14T09:25:00.291Z,17.20
2018-09-14T09:27:28.804Z,17.40
2018-09-14T09:29:57.384Z,17.40
2018-09-14T09:32:25.849Z,17.60
2018-09-14T09:34:54.318Z,17.70
2018-09-14T09:37:22.872Z,17.80
2018-09-14T09:39:51.389Z,18.00
2018-09-14T09:42:19.862Z,18.10
2018-09-14T09:44:48.352Z,18.30
2018-09-14T09:47:16.841Z,18.50
2018-09-14T09:49:45.322Z,18.50
2018-09-14T09:52:13.834Z,18.70
2018-09-14T09:54:42.286Z,18.70
2018-09-14T09:57:10.780Z,18.90
2018-09-14T09:59:39.253Z,19.00
2018-09-14T10:02:13.234Z,19.10
2018-09-14T10:04:47.022Z,19.20
2018-09-14T10:07:15.531Z,19.30
2018-09-14T10:09:44.065Z,19.30
2018-09-14T10:12:12.544Z,19.40
2018-09-14T10:14:40.979Z,19.50
2018-09-14T10:17:09.540Z,19.50
2018-09-14T10:19:38.452Z,19.50
2018-09-14T10:22:06.972Z,19.50
2018-09-14T10:24:35.469Z,19.60
2018-09-14T10:27:03.936Z,19.80
2018-09-14T10:29:32.431Z,19.90
2018-09-14T10:32:00.872Z,20.00
2018-09-14T10:34:29.377Z,20.20
2018-09-14T10:36:57.850Z,20.20
2018-09-14T10:39:26.383Z,20.10
2018-09-14T10:41:54.905Z,20.20
2018-09-14T10:44:23.398Z,20.50
2018-09-14T10:46:51.868Z,20.60
2018-09-14T10:49:20.351Z,20.70
2018-09-14T10:51:49.008Z,20.80
2018-09-14T10:54:17.508Z,21.00
2018-09-14T10:56:45.988Z,21.20
2018-09-14T10:59:14.517Z,21.30
2018-09-14T11:01:42.955Z,21.20
2018-09-14T11:04:11.420Z,21.30
2018-09-14T11:06:39.931Z,21.00
2018-09-14T11:09:10.706Z,20.90
2018-09-14T11:11:39.160Z,20.80
2018-09-14T11:14:07.649Z,20.60
2018-09-14T11:16:36.317Z,20.50
2018-09-14T11:19:04.840Z,20.50
2018-09-14T11:21:33.696Z,20.60
2018-09-14T11:24:02.564Z,20.70
2018-09-14T11:26:31.162Z,20.80
2018-09-14T11:28:59.629Z,20.70
2018-09-14T11:31:28.851Z,20.70
2018-09-14T11:33:58.144Z,20.90
2018-09-14T11:36:27.230Z,21.00
2018-09-14T11:38:55.724Z,21.10
2018-09-14T11:41:24.193Z,21.10
2018-09-14T11:43:52.776Z,21.00
2018-09-14T11:46:21.368Z,21.00
2018-09-14T11:48:50.797Z,20.90
2018-09-14T11:51:19.254Z,20.90
2018-09-14T11:53:47.744Z,20.90
2018-09-14T11:56:16.210Z,20.90
2018-09-14T11:58:44.716Z,20.90
2018-09-14T12:01:13.227Z,21.10
2018-09-14T12:03:41.665Z,21.00
2018-09-14T12:06:10.897Z,21.00
2018-09-14T12:08:39.454Z,20.90
2018-09-14T12:11:08.467Z,20.80
2018-09-14T12:13:37.799Z,21.10
2018-09-14T12:16:06.386Z,21.10
2018-09-14T12:18:35.263Z,21.30
2018-09-14T12:21:04.120Z,21.50
2018-09-14T12:23:32.857Z,21.80
2018-09-14T12:26:01.773Z,21.60
2018-09-14T12:28:30.766Z,21.50
2018-09-14T12:30:59.485Z,21.60
2018-09-14T12:33:28.290Z,21.90
2018-09-14T12:35:57.135Z,22.20
2018-09-14T12:38:25.678Z,22.30
2018-09-14T12:40:54.098Z,22.00
2018-09-14T12:43:22.608Z,21.60
2018-09-14T12:45:51.061Z,21.40
2018-09-14T12:48:19.932Z,21.30
2018-09-14T12:50:48.725Z,21.20
2018-09-14T12:53:18.264Z,21.70
2018-09-14T12:55:46.717Z,22.20
2018-09-14T12:58:15.261Z,22.70
2018-09-14T13:00:43.676Z,22.90
2018-09-14T13:03:12.504Z,23.20
2018-09-14T13:05:40.977Z,23.50
2018-09-14T13:08:09.472Z,23.30
2018-09-14T13:10:38.006Z,23.50
2018-09-14T13:13:06.525Z,23.80
2018-09-14T13:15:35.066Z,23.90
2018-09-14T13:18:03.659Z,24.20
2018-09-14T13:20:33.293Z,24.30
2018-09-14T13:23:01.783Z,24.10
2018-09-14T13:25:30.434Z,23.90
2018-09-14T13:27:59.852Z,24.00
2018-09-14T13:30:28.488Z,24.20
2018-09-14T13:32:57.030Z,24.50
2018-09-14T13:35:25.553Z,24.70
2018-09-14T13:37:54.543Z,24.80
2018-09-14T13:40:23.236Z,24.60
2018-09-14T13:42:52.105Z,24.20
2018-09-14T13:45:20.726Z,24.00
2018-09-14T13:47:49.276Z,23.80
2018-09-14T13:50:17.806Z,24.10
2018-09-14T13:52:47.278Z,24.10
2018-09-14T13:55:15.837Z,23.90
2018-09-14T13:57:44.348Z,23.60
2018-09-14T14:00:12.880Z,23.70
2018-09-14T14:02:43.027Z,23.70
2018-09-14T14:05:12.805Z,23.50
2018-09-14T14:07:41.405Z,23.50
2018-09-14T14:10:09.973Z,23.90
2018-09-14T14:12:38.398Z,24.00
2018-09-14T14:15:06.970Z,23.80
2018-09-14T14:17:35.848Z,23.60
2018-09-14T14:20:04.347Z,23.30
2018-09-14T14:22:32.945Z,23.10
2018-09-14T14:25:01.432Z,23.00
2018-09-14T14:27:30.123Z,22.90
2018-09-14T14:29:59.143Z,22.80
2018-09-14T14:32:27.994Z,22.70
2018-09-14T14:34:57.258Z,22.70
2018-09-14T14:37:26.646Z,22.60
2018-09-14T14:39:55.444Z,22.70
2018-09-14T14:42:24.523Z,22.80
2018-09-14T14:44:53.365Z,22.70
2018-09-14T14:47:22.053Z,22.80
2018-09-14T14:49:51.725Z,22.40
2018-09-14T14:52:24.569Z,22.10
2018-09-14T14:54:53.868Z,22.00
2018-09-14T14:57:23.174Z,21.90
2018-09-14T14:59:53.035Z,22.00
2018-09-14T15:02:22.748Z,21.90
2018-09-14T15:04:52.624Z,21.80
2018-09-14T15:07:22.176Z,21.90
2018-09-14T15:09:51.771Z,21.80
2018-09-14T15:12:21.237Z,21.80
2018-09-14T15:14:50.621Z,21.80
2018-09-14T15:17:19.204Z,21.80
2018-09-14T15:19:47.657Z,21.80
2018-09-14T15:22:17.220Z,21.70
2018-09-14T15:24:48.752Z,21.80
2018-09-14T15:27:17.999Z,21.90
2018-09-14T15:29:46.850Z,21.90
2018-09-14T15:32:15.721Z,21.80
2018-09-14T15:34:44.209Z,21.60
2018-09-14T15:37:12.997Z,21.50
2018-09-14T15:39:41.692Z,21.40
2018-09-14T15:42:10.185Z,21.30
2018-09-14T15:44:38.748Z,21.20
2018-09-14T15:47:07.749Z,21.10
2018-09-14T15:49:36.378Z,21.20
2018-09-14T15:52:04.996Z,21.20
2018-09-14T15:54:33.479Z,21.30
2018-09-14T15:57:02.384Z,21.20
2018-09-14T15:59:31.074Z,21.10
2018-09-14T16:01:59.756Z,21.10
2018-09-14T16:04:28.451Z,21.10
2018-09-14T16:06:56.896Z,21.00
2018-09-14T16:09:26.531Z,20.90
2018-09-14T16:11:55.175Z,20.90
2018-09-14T16:14:23.697Z,20.90
2018-09-14T16:16:52.330Z,20.90
2018-09-14T16:19:20.890Z,20.90
2018-09-14T16:21:49.632Z,21.00
2018-09-14T16:24:18.372Z,20.80
2018-09-14T16:26:46.857Z,20.70
2018-09-14T16:29:15.308Z,20.60
2018-09-14T16:31:44.192Z,20.70
2018-09-14T16:34:12.709Z,20.70
2018-09-14T16:36:41.133Z,20.70
2018-09-14T16:39:11.168Z,20.70
2018-09-14T16:41:40.516Z,20.70
2018-09-14T16:44:10.298Z,20.60
2018-09-14T16:46:39.269Z,20.60
2018-09-14T16:49:08.568Z,20.50
2018-09-14T16:51:37.246Z,20.30
2018-09-14T16:54:05.757Z,20.30
2018-09-14T16:56:35.136Z,20.20
2018-09-14T16:59:03.697Z,20.10
2018-09-14T17:01:32.424Z,19.90
2018-09-14T17:04:00.885Z,19.90
2018-09-14T17:06:29.506Z,19.90
2018-09-14T17:08:58.073Z,19.80
2018-09-14T17:11:26.557Z,19.80
2018-09-14T17:13:55.134Z,19.70
2018-09-14T17:16:23.585Z,19.70
2018-09-14T17:18:52.127Z,19.60
2018-09-14T17:21:20.703Z,19.60
2018-09-14T17:23:49.164Z,19.60
2018-09-14T17:26:17.685Z,19.50
2018-09-14T17:28:46.512Z,19.50
2018-09-14T17:31:15.128Z,19.50
2018-09-14T17:33:43.579Z,19.40
2018-09-14T17:36:12.097Z,19.40
2018-09-14T17:38:40.585Z,19.30
2018-09-14T17:41:09.180Z,19.20
2018-09-14T17:50:41.888Z,19.10
2018-09-14T17:53:10.387Z,18.80
2018-09-14T17:55:38.820Z,18.80
2018-09-14T17:58:08.345Z,18.70
2018-09-14T18:00:36.812Z,18.60
2018-09-14T18:03:05.367Z,18.60
2018-09-14T18:05:33.885Z,18.50
2018-09-14T18:08:02.394Z,18.50
2018-09-14T18:10:30.879Z,18.50
2018-09-14T18:12:59.330Z,18.40
2018-09-14T18:15:27.808Z,18.40
2018-09-14T18:17:56.295Z,18.40
2018-09-14T18:20:24.775Z,18.30
2018-09-14T18:22:53.281Z,18.30
2018-09-14T18:25:21.773Z,18.30
2018-09-14T18:27:50.360Z,18.20
2018-09-14T18:30:18.732Z,18.20
2018-09-14T18:32:47.183Z,18.20
2018-09-14T18:35:15.697Z,18.20
2018-09-14T18:37:44.135Z,18.20
2018-09-14T18:40:12.666Z,18.20
2018-09-14T18:42:41.107Z,18.20
2018-09-14T18:45:09.714Z,18.20
2018-09-14T18:47:38.281Z,18.20
2018-09-14T18:50:07.174Z,18.20
2018-09-14T18:52:35.697Z,18.10
2018-09-14T18:55:04.165Z,18.10
2018-09-14T18:57:32.641Z,18.10
2018-09-14T19:00:01.374Z,18.10
2018-09-14T19:02:29.932Z,18.10
2018-09-14T19:04:58.583Z,18.00
2018-09-14T19:07:27.256Z,18.00
2018-09-14T19:09:55.745Z,17.90
2018-09-14T19:12:24.254Z,17.90
2018-09-14T19:14:52.709Z,17.90
2018-09-14T19:17:21.173Z,17.80
2018-09-14T19:19:49.690Z,17.80
2018-09-14T19:22:18.145Z,17.80
2018-09-14T19:24:46.737Z,17.80
2018-09-14T19:27:15.217Z,17.80
2018-09-14T19:29:43.708Z,17.80
2018-09-14T19:32:12.358Z,17.90
2018-09-14T19:34:40.885Z,17.90
2018-09-14T19:37:09.389Z,18.00
2018-09-14T19:39:37.901Z,18.00
2018-09-14T19:42:06.434Z,18.00
2018-09-14T19:44:34.971Z,18.00
2018-09-14T19:47:03.426Z,18.00
2018-09-14T19:49:31.869Z,18.00
2018-09-14T19:52:00.361Z,17.90
2018-09-14T19:54:28.837Z,17.90
2018-09-14T19:56:57.345Z,17.80
2018-09-14T19:59:25.801Z,17.80
2018-09-14T20:01:54.266Z,17.80
2018-09-14T20:04:22.879Z,17.80
2018-09-14T20:06:51.406Z,17.80
2018-09-14T20:09:19.928Z,17.70
2018-09-14T20:11:48.413Z,17.70
2018-09-14T20:14:16.886Z,17.70
2018-09-14T20:16:45.362Z,17.60
2018-09-14T20:19:13.861Z,17.60
2018-09-14T20:21:42.317Z,17.60
2018-09-14T20:24:10.776Z,17.50
2018-09-14T20:26:39.928Z,17.50
2018-09-14T20:29:08.392Z,17.40
2018-09-14T20:31:37.806Z,17.40
2018-09-14T20:34:06.345Z,17.40
2018-09-14T20:36:34.877Z,17.40
2018-09-14T20:39:03.468Z,17.50
2018-09-14T20:41:31.972Z,17.40
2018-09-14T20:44:00.481Z,17.40
2018-09-14T20:46:29.058Z,17.40
2018-09-14T20:48:57.560Z,17.40
2018-09-14T20:51:26.035Z,17.40
2018-09-14T20:53:54.528Z,17.40
2018-09-14T20:56:23.054Z,17.40
2018-09-14T20:58:51.486Z,17.40
2018-09-14T21:01:19.957Z,17.40
2018-09-14T21:03:48.489Z,17.40
2018-09-14T21:06:16.949Z,17.50
2018-09-14T21:08:45.432Z,17.50
2018-09-14T21:11:13.897Z,17.40
2018-09-14T21:13:42.391Z,17.40
2018-09-14T21:16:10.849Z,17.30
2018-09-14T21:18:39.392Z,17.30
2018-09-14T21:21:07.874Z,17.30
2018-09-14T21:23:36.359Z,17.40
2018-09-14T21:26:04.787Z,17.40
2018-09-14T21:28:34.289Z,17.40
2018-09-14T21:31:02.821Z,17.30
2018-09-14T21:33:31.241Z,17.40
2018-09-14T21:35:59.756Z,17.40
2018-09-14T21:38:28.258Z,17.40
2018-09-14T21:40:56.740Z,17.40
2018-09-14T21:43:25.252Z,17.40
2018-09-14T21:45:53.777Z,17.40
2018-09-14T21:48:22.373Z,17.40
2018-09-14T21:50:51.876Z,17.40
2018-09-14T21:53:20.320Z,17.40
2018-09-14T21:55:48.877Z,17.40
2018-09-14T21:58:17.313Z,17.40
2018-09-14T22:00:51.148Z,17.40
2018-09-14T22:03:19.705Z,17.40
2018-09-14T22:05:48.236Z,17.40
2018-09-14T22:08:16.665Z,17.40
2018-09-14T22:10:45.219Z,17.30
2018-09-14T22:13:13.812Z,17.20
2018-09-14T22:15:42.358Z,17.20
2018-09-14T22:18:10.805Z,17.20
2018-09-14T22:20:39.277Z,17.20
2018-09-14T22:23:07.839Z,17.20
2018-09-14T22:25:36.417Z,17.20
2018-09-14T22:28:05.020Z,17.10
2018-09-14T22:30:33.513Z,17.10
2018-09-14T22:33:02.025Z,17.10
2018-09-14T22:35:30.513Z,17.10
2018-09-14T22:37:59.036Z,17.10
2018-09-14T22:40:27.554Z,17.10
2018-09-14T22:42:56.034Z,17.10
2018-09-14T22:45:24.494Z,17.10
2018-09-14T22:47:52.997Z,17.10
2018-09-14T22:50:21.504Z,17.00
2018-09-14T22:52:49.980Z,17.00
2018-09-14T22:55:18.745Z,17.10
2018-09-14T22:57:47.325Z,17.10
2018-09-14T23:00:21.313Z,17.10
2018-09-14T23:02:49.795Z,17.20
2018-09-14T23:05:18.325Z,17.10
2018-09-14T23:07:46.783Z,17.20
2018-09-14T23:10:15.297Z,17.10
2018-09-14T23:12:43.749Z,17.20
2018-09-14T23:15:12.221Z,17.10
2018-09-14T23:17:40.706Z,17.20
2018-09-14T23:20:09.191Z,17.20
2018-09-14T23:22:38.398Z,17.20
2018-09-14T23:25:06.902Z,17.20
2018-09-14T23:27:35.480Z,17.20
2018-09-14T23:30:03.967Z,17.20
2018-09-14T23:32:32.436Z,17.20
2018-09-14T23:35:01.136Z,17.10
2018-09-14T23:37:29.612Z,17.10
2018-09-14T23:39:58.072Z,17.20
2018-09-14T23:42:26.535Z,17.20
2018-09-14T23:44:55.057Z,17.10
2018-09-14T23:47:23.501Z,17.20
2018-09-14T23:49:51.981Z,17.10
2018-09-14T23:52:20.476Z,17.10
2018-09-14T23:54:48.952Z,17.10
2018-09-14T23:57:17.578Z,17.10
2018-09-14T23:59:46.038Z,17.10
